<?xml version="1.0" encoding="utf-8"?>
<gpx xmlns:xsi="http://www.w3.org/2001/XMLSchema-instance" xmlns:xsd="http://www.w3.org/2001/XMLSchema" version="1.1" creator="Shapelink.com" xmlns="http://www.topografix.com/GPX/1/1" xmlns:gpxtpx="http://www.garmin.com/xmlschemas/TrackPointExtension/v1">
  <metadata>
    <name>Övrigt 1.00 km, 2020-06-16</name>
    <desc></desc>
    <author><name>Marian Moron</name></author> 
    <time>2020-06-16T17:57:08Z</time>
  </metadata>
  <trk>
    <name>Övrigt 1.00 km, 2020-06-16</name>
    <trkseg>
      <trkpt lat="51.229697630089" lon="4.457210608866">
        <ele>11.6</ele>
        <time>2020-06-16T17:57:08Z</time>
      </trkpt>
      <trkpt lat="51.229765942574" lon="4.45698060953">
        <ele>0.2</ele>
        <time>2020-06-16T17:57:15Z</time>
      </trkpt>
      <trkpt lat="51.230199538261" lon="4.456733594937">
        <ele>9.4</ele>
        <time>2020-06-16T17:57:55Z</time>
      </trkpt>
      <trkpt lat="51.23064721554" lon="4.456669305764">
        <ele>5</ele>
        <time>2020-06-16T17:58:32Z</time>
      </trkpt>
      <trkpt lat="51.230896744703" lon="4.456453639477">
        <ele>4.4</ele>
        <time>2020-06-16T17:59:06Z</time>
      </trkpt>
      <trkpt lat="51.231130096799" lon="4.456209977644">
        <ele>2</ele>
        <time>2020-06-16T17:59:36Z</time>
      </trkpt>
      <trkpt lat="51.231069579481" lon="4.45619019636">
        <ele>0.6</ele>
        <time>2020-06-16T17:59:44Z</time>
      </trkpt>
      <trkpt lat="51.230981150436" lon="4.456030772622">
        <ele>0</ele>
        <time>2020-06-16T17:59:58Z</time>
      </trkpt>
      <trkpt lat="51.230992298363" lon="4.45600160361">
        <ele>0</ele>
        <time>2020-06-16T18:00:00Z</time>
      </trkpt>
      <trkpt lat="51.23100344629" lon="4.455928764899">
        <ele>0</ele>
        <time>2020-06-16T18:00:04Z</time>
      </trkpt>
      <trkpt lat="51.231025406868" lon="4.455929351632">
        <ele>0</ele>
        <time>2020-06-16T18:00:07Z</time>
      </trkpt>
      <trkpt lat="51.231052648043" lon="4.455955754617">
        <ele>0</ele>
        <time>2020-06-16T18:00:10Z</time>
      </trkpt>
      <trkpt lat="51.231222130061" lon="4.455857854025">
        <ele>0</ele>
        <time>2020-06-16T18:00:26Z</time>
      </trkpt>
      <trkpt lat="51.231200001845" lon="4.455664483592">
        <ele>0</ele>
        <time>2020-06-16T18:00:37Z</time>
      </trkpt>
      <trkpt lat="51.231173934136" lon="4.455601870799">
        <ele>0</ele>
        <time>2020-06-16T18:00:41Z</time>
      </trkpt>
      <trkpt lat="51.231094389905" lon="4.455135585702">
        <ele>0</ele>
        <time>2020-06-16T18:01:11Z</time>
      </trkpt>
      <trkpt lat="51.231024652497" lon="4.454824952488">
        <ele>0</ele>
        <time>2020-06-16T18:01:29Z</time>
      </trkpt>
      <trkpt lat="51.230940162945" lon="4.454304687955">
        <ele>0</ele>
        <time>2020-06-16T18:01:58Z</time>
      </trkpt>
      <trkpt lat="51.230937983651" lon="4.454117687766">
        <ele>0</ele>
        <time>2020-06-16T18:02:11Z</time>
      </trkpt>
      <trkpt lat="51.23083664648" lon="4.453406315913">
        <ele>0</ele>
        <time>2020-06-16T18:02:56Z</time>
      </trkpt>
      <trkpt lat="51.230774536601" lon="4.453032566992">
        <ele>0</ele>
        <time>2020-06-16T18:03:15Z</time>
      </trkpt>
      <trkpt lat="51.230777889361" lon="4.452930726907">
        <ele>0</ele>
        <time>2020-06-16T18:03:22Z</time>
      </trkpt>
      <trkpt lat="51.230741847191" lon="4.452593858346">
        <ele>0</ele>
        <time>2020-06-16T18:03:46Z</time>
      </trkpt>
      <trkpt lat="51.230733297653" lon="4.452479445411">
        <ele>2.4</ele>
        <time>2020-06-16T18:03:54Z</time>
      </trkpt>
      <trkpt lat="51.230577981046" lon="4.451800260054">
        <ele>1.4</ele>
        <time>2020-06-16T18:04:34Z</time>
      </trkpt>
      <trkpt lat="51.230547387111" lon="4.451205648068">
        <ele>0</ele>
        <time>2020-06-16T18:05:05Z</time>
      </trkpt>
      <trkpt lat="51.230504304145" lon="4.450910689007">
        <ele>0</ele>
        <time>2020-06-16T18:05:24Z</time>
      </trkpt>
      <trkpt lat="51.230461304998" lon="4.450893925207">
        <ele>0</ele>
        <time>2020-06-16T18:06:29Z</time>
      </trkpt>
      <trkpt lat="51.230428280312" lon="4.450884286022">
        <ele>0</ele>
        <time>2020-06-16T18:06:32Z</time>
      </trkpt>
      <trkpt lat="51.229998959394" lon="4.45093893601">
        <ele>0</ele>
        <time>2020-06-16T18:07:16Z</time>
      </trkpt>
      <trkpt lat="51.22960534537" lon="4.450837179744">
        <ele>0</ele>
        <time>2020-06-16T18:07:56Z</time>
      </trkpt>
      <trkpt lat="51.229578858566" lon="4.450648503175">
        <ele>0</ele>
        <time>2020-06-16T18:08:21Z</time>
      </trkpt>
      <trkpt lat="51.229506858045" lon="4.449940986996">
        <ele>5.4</ele>
        <time>2020-06-16T18:09:07Z</time>
      </trkpt>
      <trkpt lat="51.229419686285" lon="4.449232548808">
        <ele>5.4</ele>
        <time>2020-06-16T18:09:49Z</time>
      </trkpt>
      <trkpt lat="51.229120620093" lon="4.44868169034">
        <ele>0</ele>
        <time>2020-06-16T18:10:28Z</time>
      </trkpt>
      <trkpt lat="51.228991706471" lon="4.44872192346">
        <ele>0</ele>
        <time>2020-06-16T18:10:45Z</time>
      </trkpt>
      <trkpt lat="51.228689874252" lon="4.449135402587">
        <ele>0.6</ele>
        <time>2020-06-16T18:11:58Z</time>
      </trkpt>
      <trkpt lat="51.228490636489" lon="4.449300945112">
        <ele>0</ele>
        <time>2020-06-16T18:12:54Z</time>
      </trkpt>
      <trkpt lat="51.228413774466" lon="4.449308740279">
        <ele>0</ele>
        <time>2020-06-16T18:13:44Z</time>
      </trkpt>
      <trkpt lat="51.228501532959" lon="4.449220814148">
        <ele>0</ele>
        <time>2020-06-16T18:14:06Z</time>
      </trkpt>
    </trkseg>
  </trk>
</gpx>